News

From 0-500 hours free webinar

Flying Academy is hosting on 31th of July from 16:00 to 17:00 CET (UTC+2) a free live webinar where our Flight Training Consultants will present all details about our 0-500 hours course.

During this one hour presentation we will discuss about:

- course description

- requirements to enroll

- course duration and cost

- opportunities after training

- living in the Czech Republic

- extra curricular activities.

We will also have a Q&A session at the end so that all question which you might have will be answered.

You can register for free HERE.

continue reading >>

ATPL650 - theoretical course - starts in Brno as of 16.08.2014

Flying Academy opens new ATPL(A) theoretical course in Brno as of  16th of August

License ATPL(A) is the highest level of pilot's education. Pilot with this license is authorized to act as a Pilot in Command (Captain) or Fist Officer (Co-pilot) of an aircraft engaged in commercial flying.

continue reading >>

Flying Academy launches Open Day in Brno on 28th of June.

On occasion of Day of Pilot Flying Academy invites all aviation enthusiasts and those who are interested in pilot training to visit us in order to participate interactive lectures, get all detailed information about training courses and get up-to date news from the World of Aviation.

During the Open Day you have a great opportunity to meet current transport pilots, experienced flight instructors and professional flight training consultants who will be happy to answer all your questions and help you to choose the training according to your needs. 

continue reading >>

archive

Latest blog post

10 advantages for using the iPad in the cockpit

Flying Academy – the flight training organization managed by airline pilots – has started 2 months ago to equip its trainees with iPads. The Academy took the lead to revolutionize the cockpit and pilot training, realizing the vision of paperless flying and becoming the first Czech FTO to fly with iPad EFBs. The process will make learning to fly much easier, more efficient and accurate, useful for private pilots and important for future commercial pilots.

After having the iPad in trials, Flying Academy’s flight instructors have concluded that it’s extremely useful in the cockpit because it’s:

1. Fast – extremely short response time;

2. Reliable – as the iOS has very limited crashes;

3. Easy to use – intuitive menu and apps.

continue reading >>

archive

Latest weather

LKKV

LKKV 301230Z 02005KT 9999 -SHRA FEW005 FEW016CB BKN020 20/17 Q1009

LKPR

LKPR 301230Z 02004KT 320V070 9999 FEW030CB 24/18 Q1008 NOSIG

LKTB

LKTB 301230Z 22005KT 190V300 CAVOK 23/19 Q1008 TEMPO TSRA



Briefing tools

METAR & TAF Europe

METAR & TAF CZ

Weather Radar CZ

AIP Czech Republic

From 0 to 500 hours with Flying Academy Find out how